Time;durP1;ratioP1;P1;durP2;ratioP2;P2;SDS_P1;SDS_P2;PMS_P1;PMS_P2;Temp;Humidity;BMP_temperature;BMP_pressure;BME280_temperature;BME280_humidity;BME280_pressure;Samples;Min_cycle;Max_cycle;Signal;HPM_P1;HPM_P2
2022/11/08 00:01:34;;;;;;;70.75;27.15;;;;;;;;;;6245653;23;20393;-84
2022/11/08 00:04:01;;;;;;;70.00;26.20;;;;;;;;;;6269946;22;20024;-85
2022/11/08 00:14:39;;;;;;;75.07;27.70;;;;;;;;;;6268285;22;20018;-85
2022/11/08 00:17:04;;;;;;;86.43;29.52;;;;;;;;;;6271254;22;20004;-84
2022/11/08 00:19:30;;;;;;;82.63;29.02;;;;;;;;;;6246111;23;20015;-85
2022/11/08 00:21:55;;;;;;;74.63;28.05;;;;;;;;;;6245607;23;20007;-84
2022/11/08 00:24:21;;;;;;;76.38;29.13;;;;;;;;;;6271508;22;20071;-85
2022/11/08 00:26:46;;;;;;;67.50;27.27;;;;;;;;;;6246813;23;20027;-84
2022/11/08 00:29:12;;;;;;;83.88;29.20;;;;;;;;;;6271478;22;20016;-85
2022/11/08 00:31:37;;;;;;;83.13;29.75;;;;;;;;;;6245731;23;20053;-85
2022/11/08 00:34:03;;;;;;;71.38;27.70;;;;;;;;;;6271621;22;20016;-85
2022/11/08 00:36:29;;;;;;;93.60;32.92;;;;;;;;;;6245979;23;20812;-85
2022/11/08 00:38:54;;;;;;;74.32;29.08;;;;;;;;;;6245928;23;20099;-86
2022/11/08 00:41:19;;;;;;;79.72;31.25;;;;;;;;;;6271541;22;20016;-85
2022/11/08 00:43:45;;;;;;;75.80;27.15;;;;;;;;;;6247194;23;20066;-85
2022/11/08 00:46:10;;;;;;;82.57;29.92;;;;;;;;;;6271503;22;20023;-85
2022/11/08 00:48:36;;;;;;;85.90;31.73;;;;;;;;;;6271487;22;20355;-85
2022/11/08 00:51:02;;;;;;;81.22;31.35;;;;;;;;;;6245657;23;20362;-85
2022/11/08 00:53:28;;;;;;;81.90;32.28;;;;;;;;;;6271295;22;20016;-85
2022/11/08 00:55:57;;;;;;;89.95;32.45;;;;;;;;;;6245880;23;20023;-85
2022/11/08 00:58:23;;;;;;;78.10;30.48;;;;;;;;;;6271151;22;20027;-86
2022/11/08 01:00:48;;;;;;;79.68;30.98;;;;;;;;;;6220365;23;20032;-86
2022/11/08 01:03:20;;;;;;;73.40;30.17;;;;;;;;;;6271432;22;20077;-85
2022/11/08 01:05:49;;;;;;;75.18;29.05;;;;;;;;;;6269673;22;20027;-85
2022/11/08 01:08:14;;;;;;;83.90;32.05;;;;;;;;;;6271168;22;20012;-85
2022/11/08 01:10:41;;;;;;;80.10;33.90;;;;;;;;;;6270529;22;20028;-85
2022/11/08 01:13:06;;;;;;;75.80;31.42;;;;;;;;;;6271641;22;20075;-85
2022/11/08 01:15:35;;;;;;;86.53;31.95;;;;;;;;;;6247120;23;20440;-85
2022/11/08 01:18:01;;;;;;;79.40;33.15;;;;;;;;;;6271657;22;20103;-84
2022/11/08 01:20:27;;;;;;;82.28;35.80;;;;;;;;;;6270571;22;20008;-84
2022/11/08 01:22:52;;;;;;;80.32;32.35;;;;;;;;;;6270884;22;20011;-85
2022/11/08 01:25:18;;;;;;;84.97;35.45;;;;;;;;;;6270027;22;20011;-85
2022/11/08 01:27:43;;;;;;;77.70;32.55;;;;;;;;;;6270070;22;20007;-85
2022/11/08 01:30:09;;;;;;;82.80;33.28;;;;;;;;;;6270668;22;20016;-85
2022/11/08 01:32:34;;;;;;;82.03;34.25;;;;;;;;;;6244896;23;20000;-85
2022/11/08 01:35:00;;;;;;;86.68;35.40;;;;;;;;;;6245658;23;20012;-85
2022/11/08 01:37:25;;;;;;;75.75;31.55;;;;;;;;;;6271311;22;20012;-85
2022/11/08 01:39:51;;;;;;;79.28;33.15;;;;;;;;;;6271686;22;20008;-85
2022/11/08 01:42:16;;;;;;;78.72;31.73;;;;;;;;;;6247631;23;20113;-85
2022/11/08 01:45:01;;;;;;;76.90;31.45;;;;;;;;;;6244121;23;20336;-86
2022/11/08 01:47:27;;;;;;;75.75;32.42;;;;;;;;;;6245694;23;20032;-84
2022/11/08 01:49:53;;;;;;;79.03;31.55;;;;;;;;;;6270035;22;20003;-85
2022/11/08 01:52:19;;;;;;;76.07;32.38;;;;;;;;;;6270992;22;20022;-85
2022/11/08 01:54:49;;;;;;;77.50;33.17;;;;;;;;;;6271249;22;20432;-84
2022/11/08 01:57:35;;;;;;;76.40;32.50;;;;;;;;;;6247263;23;20087;-84
2022/11/08 02:00:02;;;;;;;70.68;30.70;;;;;;;;;;6225756;23;20051;-85
2022/11/08 02:02:33;;;;;;;71.15;31.90;;;;;;;;;;6245745;23;20087;-84
2022/11/08 02:04:58;;;;;;;74.13;30.60;;;;;;;;;;6244788;23;20121;-84
2022/11/08 02:07:24;;;;;;;73.63;31.42;;;;;;;;;;6219357;23;20432;-85
2022/11/08 02:09:49;;;;;;;72.72;31.42;;;;;;;;;;6244771;23;20040;-84
2022/11/08 02:12:16;;;;;;;72.18;29.95;;;;;;;;;;6245327;23;19999;-85
2022/11/08 02:14:41;;;;;;;69.78;31.38;;;;;;;;;;6219984;23;20391;-84
2022/11/08 02:17:08;;;;;;;66.32;29.92;;;;;;;;;;6219640;23;20007;-84
2022/11/08 02:19:37;;;;;;;67.40;29.65;;;;;;;;;;6244616;23;20455;-85
2022/11/08 02:22:02;;;;;;;61.58;28.63;;;;;;;;;;6244495;23;20050;-84
2022/11/08 02:24:28;;;;;;;;;;;;;;;;;;6245406;23;20062;-85
2022/11/08 02:26:53;;;;;;;61.53;27.35;;;;;;;;;;6246640;23;20323;-84
2022/11/08 02:29:28;;;;;;;59.60;27.65;;;;;;;;;;6246786;23;20066;-85
2022/11/08 02:31:54;;;;;;;62.75;28.65;;;;;;;;;;6246347;23;20012;-85
2022/11/08 02:34:20;;;;;;;61.55;28.52;;;;;;;;;;6245676;23;20030;-84
2022/11/08 02:36:45;;;;;;;59.92;28.13;;;;;;;;;;6244669;23;20500;-84
2022/11/08 02:39:11;;;;;;;63.67;29.13;;;;;;;;;;6243721;23;20427;-84
2022/11/08 02:41:36;;;;;;;53.90;26.70;;;;;;;;;;6245000;23;20015;-84
2022/11/08 02:44:02;;;;;;;61.55;29.17;;;;;;;;;;6244752;23;20022;-85
2022/11/08 02:46:27;;;;;;;65.50;30.30;;;;;;;;;;6244900;23;20020;-85
2022/11/08 02:48:53;;;;;;;65.50;29.55;;;;;;;;;;6245920;23;20386;-85
2022/11/08 02:51:18;;;;;;;62.30;29.13;;;;;;;;;;6244514;23;20467;-85
2022/11/08 02:53:44;;;;;;;59.75;30.02;;;;;;;;;;6219574;23;20030;-85
2022/11/08 02:56:09;;;;;;;61.05;30.00;;;;;;;;;;6244736;23;20016;-85
2022/11/08 02:58:35;;;;;;;67.80;32.42;;;;;;;;;;6254975;22;20020;-85
2022/11/08 03:01:00;;;;;;;69.07;29.95;;;;;;;;;;6270152;22;20402;-85
2022/11/08 03:03:26;;;;;;;67.70;31.23;;;;;;;;;;6246529;22;20008;-86
2022/11/08 03:05:51;;;;;;;67.03;31.00;;;;;;;;;;6269921;22;20086;-84
2022/11/08 03:08:17;;;;;;;61.67;29.92;;;;;;;;;;6270301;22;20004;-84
2022/11/08 03:10:42;;;;;;;63.58;28.38;;;;;;;;;;6269988;22;20018;-83
2022/11/08 03:13:08;;;;;;;55.25;26.42;;;;;;;;;;6246268;22;20008;-84
2022/11/08 03:15:33;;;;;;;71.93;31.40;;;;;;;;;;6243935;23;20467;-84
2022/11/08 03:18:01;;;;;;;62.22;28.65;;;;;;;;;;6269883;22;20388;-85
2022/11/08 03:20:26;;;;;;;67.93;29.80;;;;;;;;;;6244113;23;20452;-85
2022/11/08 03:23:01;;;;;;;70.38;28.73;;;;;;;;;;6270635;22;20026;-85
2022/11/08 03:25:26;;;;;;;54.83;26.15;;;;;;;;;;6270222;22;20008;-86
2022/11/08 03:27:52;;;;;;;57.78;26.80;;;;;;;;;;6270095;22;20087;-86
2022/11/08 03:30:17;;;;;;;55.05;26.33;;;;;;;;;;6244273;23;20020;-85
2022/11/08 03:32:45;;;;;;;59.92;28.92;;;;;;;;;;6270010;22;20085;-85
2022/11/08 03:35:11;;;;;;;55.85;26.58;;;;;;;;;;6245726;22;20012;-85
2022/11/08 03:37:36;;;;;;;53.70;25.92;;;;;;;;;;6244291;23;20094;-85
2022/11/08 03:40:02;;;;;;;61.55;27.27;;;;;;;;;;6270453;22;20451;-84
2022/11/08 03:42:28;;;;;;;52.78;25.25;;;;;;;;;;6244375;23;20057;-85
2022/11/08 03:44:53;;;;;;;56.83;25.20;;;;;;;;;;6270828;22;20019;-84
2022/11/08 03:47:19;;;;;;;54.22;26.98;;;;;;;;;;6247554;22;20420;-85
2022/11/08 03:49:44;;;;;;;59.70;26.85;;;;;;;;;;6246078;23;20363;-85
2022/11/08 03:52:11;;;;;;;59.42;28.20;;;;;;;;;;6221069;23;20320;-85
2022/11/08 03:54:36;;;;;;;55.25;24.85;;;;;;;;;;6246049;22;20008;-84
2022/11/08 03:57:02;;;;;;;58.53;26.73;;;;;;;;;;6270814;22;20304;-84
2022/11/08 03:59:27;;;;;;;65.43;28.35;;;;;;;;;;6271638;22;20063;-85
2022/11/08 04:01:53;;;;;;;58.38;26.75;;;;;;;;;;6271857;22;20016;-86
2022/11/08 04:04:18;;;;;;;65.45;28.00;;;;;;;;;;6272687;22;20019;-84
2022/11/08 04:06:44;;;;;;;67.20;28.52;;;;;;;;;;6272349;22;20424;-85
2022/11/08 04:09:09;;;;;;;63.20;28.58;;;;;;;;;;6271880;22;20130;-84
2022/11/08 04:17:03;;;;;;;68.43;29.38;;;;;;;;;;6268021;22;20467;-84
2022/11/08 04:22:13;;;;;;;69.03;30.95;;;;;;;;;;6267361;22;20018;-84
2022/11/08 04:24:38;;;;;;;68.40;28.70;;;;;;;;;;6271110;22;20396;-84
2022/11/08 04:27:04;;;;;;;69.18;30.02;;;;;;;;;;6270926;22;20007;-84
2022/11/08 04:29:29;;;;;;;71.30;31.27;;;;;;;;;;6271557;22;19996;-84
2022/11/08 04:31:55;;;;;;;71.43;29.98;;;;;;;;;;6271093;22;20008;-83
2022/11/08 04:34:20;;;;;;;83.45;33.15;;;;;;;;;;6271581;22;20000;-84
2022/11/08 04:37:11;;;;;;;78.43;30.63;;;;;;;;;;6266141;22;20011;-84
2022/11/08 04:39:36;;;;;;;62.30;29.00;;;;;;;;;;6247108;22;20387;-83
2022/11/08 04:42:02;;;;;;;78.35;32.33;;;;;;;;;;6269765;22;20091;-85
2022/11/08 04:44:27;;;;;;;70.15;30.60;;;;;;;;;;6269601;22;20109;-83
2022/11/08 04:46:53;;;;;;;70.13;30.42;;;;;;;;;;6244592;23;20351;-84
2022/11/08 04:49:18;;;;;;;67.80;30.33;;;;;;;;;;6246145;22;20060;-85
2022/11/08 04:51:44;;;;;;;68.70;29.77;;;;;;;;;;6271265;22;20006;-85
2022/11/08 04:54:10;;;;;;;68.53;30.55;;;;;;;;;;6270827;22;20463;-86
2022/11/08 04:56:36;;;;;;;68.05;29.75;;;;;;;;;;6269909;22;20000;-84
2022/11/08 04:59:01;;;;;;;74.25;32.08;;;;;;;;;;6270829;22;20039;-87
2022/11/08 05:01:27;;;;;;;75.80;30.52;;;;;;;;;;6271441;22;20019;-88
2022/11/08 05:03:53;;;;;;;;;;;;;;;;;;6245897;23;20015;-84
2022/11/08 05:06:22;;;;;;;64.82;28.85;;;;;;;;;;6247098;22;19903;-86
2022/11/08 05:08:47;;;;;;;68.72;30.00;;;;;;;;;;6270959;22;20020;-85
2022/11/08 05:11:14;;;;;;;70.47;29.40;;;;;;;;;;6270968;22;20078;-84
2022/11/08 05:13:40;;;;;;;67.65;29.02;;;;;;;;;;6270994;22;20067;-84
2022/11/08 05:16:06;;;;;;;64.78;30.80;;;;;;;;;;6270629;22;20444;-87
2022/11/08 05:18:31;;;;;;;64.45;30.20;;;;;;;;;;6245734;22;20077;-82
2022/11/08 05:23:41;;;;;;;70.43;29.25;;;;;;;;;;6244016;23;20038;-82
2022/11/08 05:26:07;;;;;;;62.58;28.30;;;;;;;;;;6269911;22;20075;-82
2022/11/08 05:28:32;;;;;;;62.92;29.88;;;;;;;;;;6245872;22;20008;-82
2022/11/08 05:30:58;;;;;;;64.65;28.17;;;;;;;;;;6244720;23;20004;-84
2022/11/08 05:33:23;;;;;;;67.22;28.65;;;;;;;;;;6270491;22;20015;-83
2022/11/08 05:35:49;;;;;;;67.25;30.77;;;;;;;;;;6245324;23;20071;-85
2022/11/08 05:38:14;;;;;;;67.63;29.40;;;;;;;;;;6268780;22;20019;-84
2022/11/08 05:40:40;;;;;;;60.63;27.98;;;;;;;;;;6243695;23;19996;-84
2022/11/08 05:43:05;;;;;;;59.17;28.05;;;;;;;;;;6244507;23;20031;-85
2022/11/08 05:45:31;;;;;;;54.70;26.95;;;;;;;;;;6244044;22;20007;-85
2022/11/08 05:48:02;;;;;;;59.60;28.33;;;;;;;;;;6243355;23;20012;-85
2022/11/08 05:50:31;;;;;;;65.40;30.70;;;;;;;;;;6268601;22;20016;-85
2022/11/08 05:53:03;;;;;;;54.58;27.98;;;;;;;;;;6243376;23;20483;-85
2022/11/08 05:55:30;;;;;;;61.90;30.02;;;;;;;;;;6269066;22;20039;-85
2022/11/08 05:57:55;;;;;;;62.78;28.38;;;;;;;;;;6268229;22;20074;-85
2022/11/08 06:00:21;;;;;;;62.95;27.65;;;;;;;;;;6268423;22;20019;-85
2022/11/08 06:02:47;;;;;;;57.80;27.77;;;;;;;;;;6244574;22;20008;-84
2022/11/08 06:05:12;;;;;;;58.33;27.00;;;;;;;;;;6268501;22;20007;-85
2022/11/08 06:07:38;;;;;;;62.00;28.42;;;;;;;;;;6268119;22;20015;-85
2022/11/08 06:10:03;;;;;;;61.85;28.60;;;;;;;;;;6244535;22;20411;-84
2022/11/08 06:12:29;;;;;;;55.90;26.80;;;;;;;;;;6244510;22;20434;-85
2022/11/08 06:14:54;;;;;;;59.50;28.42;;;;;;;;;;6268519;22;20493;-86
2022/11/08 06:17:20;;;;;;;63.28;28.02;;;;;;;;;;6244845;22;20007;-86
2022/11/08 06:19:45;;;;;;;64.97;29.48;;;;;;;;;;6242101;23;20065;-84
2022/11/08 06:22:11;;;;;;;61.90;28.92;;;;;;;;;;6242165;22;19996;-84
2022/11/08 06:24:36;;;;;;;62.55;29.35;;;;;;;;;;6268151;22;20146;-86
2022/11/08 06:27:02;;;;;;;59.00;27.88;;;;;;;;;;6242953;23;20027;-84
2022/11/08 06:29:27;;;;;;;56.88;29.38;;;;;;;;;;6268034;22;20018;-86
2022/11/08 06:31:53;;;;;;;59.03;29.63;;;;;;;;;;6267073;22;20007;-85
2022/11/08 06:34:18;;;;;;;56.47;28.23;;;;;;;;;;6267186;22;20040;-85
2022/11/08 06:36:44;;;;;;;57.65;28.35;;;;;;;;;;6243964;22;20000;-85
2022/11/08 06:39:09;;;;;;;63.80;30.05;;;;;;;;;;6268024;22;20012;-85
2022/11/08 06:41:35;;;;;;;58.50;28.50;;;;;;;;;;6267686;22;20328;-83
2022/11/08 06:44:00;;;;;;;56.78;28.50;;;;;;;;;;6268497;22;20027;-85
2022/11/08 06:46:26;;;;;;;58.55;27.20;;;;;;;;;;6243821;22;20000;-85
2022/11/08 06:48:51;;;;;;;57.45;27.92;;;;;;;;;;6268762;22;20012;-84
2022/11/08 06:51:17;;;;;;;;;;;;;;;;;;6268837;22;19996;-84
2022/11/08 06:53:43;;;;;;;57.67;28.65;;;;;;;;;;6242925;23;19914;-85
2022/11/08 06:56:08;;;;;;;61.35;28.27;;;;;;;;;;6267199;22;20032;-84
2022/11/08 06:58:34;;;;;;;59.67;28.30;;;;;;;;;;6267642;22;20404;-84
2022/11/08 07:01:03;;;;;;;54.42;27.75;;;;;;;;;;6243852;22;20420;-84
2022/11/08 07:03:29;;;;;;;55.22;28.40;;;;;;;;;;6268192;22;20106;-84
2022/11/08 07:05:54;;;;;;;58.00;28.30;;;;;;;;;;6267944;22;20332;-84
2022/11/08 07:08:20;;;;;;;56.13;28.70;;;;;;;;;;6242957;23;20016;-84
2022/11/08 07:10:45;;;;;;;55.92;27.77;;;;;;;;;;6244379;22;20007;-85
2022/11/08 07:13:11;;;;;;;55.15;28.08;;;;;;;;;;6242954;22;20398;-84
2022/11/08 07:15:36;;;;;;;58.03;27.30;;;;;;;;;;6266572;22;20000;-85
2022/11/08 07:18:06;;;;;;;56.58;30.20;;;;;;;;;;6266643;22;20444;-84
2022/11/08 07:20:31;;;;;;;62.50;30.98;;;;;;;;;;6242811;22;20000;-84
2022/11/08 07:22:57;;;;;;;55.65;28.83;;;;;;;;;;6241477;23;20019;-84
2022/11/08 07:25:23;;;;;;;56.40;28.48;;;;;;;;;;6266513;22;20416;-84
2022/11/08 07:27:48;;;;;;;58.65;29.05;;;;;;;;;;6242759;22;20103;-84
2022/11/08 07:30:14;;;;;;;54.42;26.48;;;;;;;;;;6242671;22;20004;-84
2022/11/08 07:32:39;;;;;;;55.08;27.42;;;;;;;;;;6242780;22;20396;-83
2022/11/08 07:35:05;;;;;;;51.90;26.65;;;;;;;;;;6242274;22;20425;-84
2022/11/08 07:37:31;;;;;;;49.13;25.52;;;;;;;;;;6266894;22;20586;-84
2022/11/08 07:39:56;;;;;;;53.38;26.42;;;;;;;;;;6242796;22;20322;-84
2022/11/08 07:42:22;;;;;;;48.42;24.75;;;;;;;;;;6242624;23;20008;-84
2022/11/08 07:45:00;;;;;;;50.60;25.58;;;;;;;;;;6267478;22;20095;-84
2022/11/08 07:47:26;;;;;;;49.33;25.40;;;;;;;;;;6267410;22;20032;-84
2022/11/08 07:49:51;;;;;;;49.90;24.98;;;;;;;;;;6267296;22;20099;-84
2022/11/08 07:52:17;;;;;;;47.63;24.70;;;;;;;;;;6267422;22;20019;-84
2022/11/08 07:54:43;;;;;;;53.83;26.02;;;;;;;;;;6267802;22;20412;-84
2022/11/08 07:57:08;;;;;;;44.75;23.45;;;;;;;;;;6267698;22;20012;-84
2022/11/08 07:59:34;;;;;;;53.92;24.65;;;;;;;;;;6243409;22;20380;-84
2022/11/08 08:01:59;;;;;;;48.50;24.42;;;;;;;;;;6242050;23;20008;-84
2022/11/08 08:04:27;;;;;;;49.83;25.42;;;;;;;;;;6243653;23;19995;-85
2022/11/08 08:06:52;;;;;;;46.15;23.77;;;;;;;;;;6243773;22;20023;-86
2022/11/08 08:09:18;;;;;;;47.65;22.92;;;;;;;;;;6267334;22;20007;-85
2022/11/08 08:11:43;;;;;;;46.22;23.27;;;;;;;;;;6267756;22;20011;-85
2022/11/08 08:14:09;;;;;;;40.88;21.45;;;;;;;;;;6267644;22;20007;-85
2022/11/08 08:16:35;;;;;;;43.83;22.10;;;;;;;;;;6241417;23;20011;-85
2022/11/08 08:19:01;;;;;;;45.95;22.73;;;;;;;;;;6241987;23;20015;-86
2022/11/08 08:21:26;;;;;;;51.42;23.73;;;;;;;;;;6242448;23;20095;-86
2022/11/08 08:23:52;;;;;;;45.78;23.45;;;;;;;;;;6243435;23;20007;-85
2022/11/08 08:26:17;;;;;;;43.67;22.30;;;;;;;;;;6267629;22;20023;-85
2022/11/08 08:28:43;;;;;;;45.30;22.48;;;;;;;;;;6240929;23;19996;-85
2022/11/08 08:31:09;;;;;;;42.85;21.88;;;;;;;;;;6242128;23;20131;-85
2022/11/08 08:33:34;;;;;;;48.00;22.67;;;;;;;;;;6268000;22;20523;-85
2022/11/08 08:36:00;;;;;;;46.85;22.77;;;;;;;;;;6268219;22;20016;-85
2022/11/08 08:38:25;;;;;;;;;;;;;;;;;;6243263;23;20057;-85
2022/11/08 08:40:51;;;;;;;43.58;22.20;;;;;;;;;;6243508;23;19907;-85
2022/11/08 08:43:17;;;;;;;42.97;21.60;;;;;;;;;;6268652;22;19996;-85
2022/11/08 08:45:42;;;;;;;44.72;22.05;;;;;;;;;;6268375;22;20008;-85
2022/11/08 08:48:08;;;;;;;46.95;22.10;;;;;;;;;;6268685;22;20004;-85
2022/11/08 08:50:33;;;;;;;42.25;22.25;;;;;;;;;;6268099;22;20470;-85
2022/11/08 08:52:59;;;;;;;45.47;21.45;;;;;;;;;;6242469;23;20137;-86
2022/11/08 08:55:25;;;;;;;46.63;21.52;;;;;;;;;;6244705;22;20016;-86
2022/11/08 08:57:50;;;;;;;42.50;21.73;;;;;;;;;;6245007;22;20026;-84
2022/11/08 09:00:16;;;;;;;41.70;20.52;;;;;;;;;;6243474;23;20012;-87
2022/11/08 09:02:41;;;;;;;38.58;20.10;;;;;;;;;;6269290;22;20008;-85
2022/11/08 09:05:07;;;;;;;37.38;19.58;;;;;;;;;;6269120;22;20012;-87
2022/11/08 09:07:33;;;;;;;39.22;19.65;;;;;;;;;;6268905;22;19996;-85
2022/11/08 09:09:59;;;;;;;42.47;19.88;;;;;;;;;;6269170;22;20091;-86
2022/11/08 09:12:25;;;;;;;40.65;19.65;;;;;;;;;;6243124;23;20019;-86
2022/11/08 09:14:51;;;;;;;42.28;20.17;;;;;;;;;;6216631;23;20293;-86
2022/11/08 09:17:16;;;;;;;41.50;20.38;;;;;;;;;;6243768;22;20000;-86
2022/11/08 09:19:42;;;;;;;40.67;20.63;;;;;;;;;;6268582;22;20012;-87
2022/11/08 09:22:07;;;;;;;42.03;19.80;;;;;;;;;;6244274;23;20380;-85
2022/11/08 09:24:33;;;;;;;43.08;21.55;;;;;;;;;;6243986;23;20351;-86
2022/11/08 09:27:02;;;;;;;44.72;20.27;;;;;;;;;;6267904;22;20328;-85
2022/11/08 09:29:31;;;;;;;44.60;21.85;;;;;;;;;;6267835;22;20012;-86
2022/11/08 09:31:56;;;;;;;42.97;22.90;;;;;;;;;;6268372;22;20066;-86
2022/11/08 09:34:22;;;;;;;50.60;23.35;;;;;;;;;;6242093;23;20016;-86
2022/11/08 09:36:47;;;;;;;49.22;22.25;;;;;;;;;;6242476;23;20083;-85
2022/11/08 09:39:13;;;;;;;48.13;23.17;;;;;;;;;;6241984;23;20008;-85
2022/11/08 09:41:57;;;;;;;54.17;24.98;;;;;;;;;;6216824;23;20007;-86
2022/11/08 09:44:32;;;;;;;54.65;25.02;;;;;;;;;;6243729;22;20450;-85
2022/11/08 09:46:58;;;;;;;56.58;26.48;;;;;;;;;;6244030;22;20066;-85
2022/11/08 09:49:34;;;;;;;59.72;27.40;;;;;;;;;;6267420;22;20004;-86
2022/11/08 09:52:00;;;;;;;68.30;29.38;;;;;;;;;;6267529;22;20034;-85
2022/11/08 09:54:28;;;;;;;63.65;29.10;;;;;;;;;;6267655;22;20007;-86
2022/11/08 09:56:54;;;;;;;60.63;27.25;;;;;;;;;;6267208;22;20368;-86
2022/11/08 09:59:19;;;;;;;;;;;;;;;;;;6242821;23;20023;-85
2022/11/08 10:01:45;;;;;;;62.85;26.52;;;;;;;;;;6241890;23;19912;-86
2022/11/08 10:04:11;;;;;;;60.47;27.45;;;;;;;;;;6242346;23;20019;-85
2022/11/08 10:06:37;;;;;;;;;;;;;;;;;;6243612;23;20008;-85
2022/11/08 10:09:10;;;;;;;56.97;26.38;;;;;;;;;;6243404;23;19910;-87
2022/11/08 10:11:39;;;;;;;58.35;26.92;;;;;;;;;;6244658;23;20016;-87
2022/11/08 10:14:28;;;;;;;52.88;24.73;;;;;;;;;;6267815;22;20082;-86
2022/11/08 10:16:59;;;;;;;55.17;26.40;;;;;;;;;;6215802;22;20012;-87
2022/11/08 10:19:33;;;;;;;60.38;25.10;;;;;;;;;;6242345;23;20066;-85
2022/11/08 10:22:22;;;;;;;50.55;24.42;;;;;;;;;;6268267;22;20008;-85
2022/11/08 10:24:48;;;;;;;51.83;23.77;;;;;;;;;;6215681;23;20043;-86
2022/11/08 10:27:15;;;;;;;52.05;24.92;;;;;;;;;;6243026;23;19999;-86
2022/11/08 10:29:42;;;;;;;53.33;24.10;;;;;;;;;;6242630;23;20012;-86
2022/11/08 10:32:17;;;;;;;52.75;25.20;;;;;;;;;;6267940;22;20000;-84
2022/11/08 10:34:47;;;;;;;57.63;25.13;;;;;;;;;;6267839;22;20011;-85
2022/11/08 10:37:12;;;;;;;53.67;25.17;;;;;;;;;;6267795;22;20014;-85
2022/11/08 10:39:38;;;;;;;46.85;24.35;;;;;;;;;;6267608;22;20094;-87
2022/11/08 10:42:05;;;;;;;56.92;25.45;;;;;;;;;;6267700;22;20000;-86
2022/11/08 10:44:30;;;;;;;49.72;25.15;;;;;;;;;;6267720;22;20098;-85
2022/11/08 10:46:56;;;;;;;48.05;23.38;;;;;;;;;;6243386;22;20000;-86
2022/11/08 10:49:35;;;;;;;48.95;23.63;;;;;;;;;;6243503;23;20065;-86
2022/11/08 10:52:05;;;;;;;44.80;23.13;;;;;;;;;;6242661;23;20039;-87
2022/11/08 10:54:40;;;;;;;48.67;24.58;;;;;;;;;;6267658;22;20038;-86
2022/11/08 10:57:06;;;;;;;48.73;24.40;;;;;;;;;;6268195;22;20012;-87
2022/11/08 10:59:32;;;;;;;48.78;24.58;;;;;;;;;;6267764;22;20836;-86
2022/11/08 11:01:57;;;;;;;49.03;24.58;;;;;;;;;;6267281;22;20152;-87
2022/11/08 11:04:27;;;;;;;46.55;24.38;;;;;;;;;;6241471;23;20368;-86
2022/11/08 11:06:52;;;;;;;46.78;23.35;;;;;;;;;;6241651;23;20035;-87
2022/11/08 11:09:19;;;;;;;50.67;24.90;;;;;;;;;;6216383;23;20000;-86
2022/11/08 11:11:44;;;;;;;;;;;;;;;;;;6243950;22;20034;-86
2022/11/08 11:14:13;;;;;;;49.05;24.70;;;;;;;;;;6241172;23;19990;-86
2022/11/08 11:16:47;;;;;;;51.63;26.83;;;;;;;;;;6241337;23;20012;-86
2022/11/08 11:19:13;;;;;;;50.58;24.67;;;;;;;;;;6267014;22;20012;-86
2022/11/08 11:21:38;;;;;;;49.58;23.77;;;;;;;;;;6241962;23;19996;-86
2022/11/08 11:24:05;;;;;;;45.50;23.98;;;;;;;;;;6241640;23;20008;-86
2022/11/08 11:26:33;;;;;;;45.92;23.08;;;;;;;;;;6241230;23;19996;-86
2022/11/08 11:29:04;;;;;;;50.85;24.30;;;;;;;;;;6267016;22;20119;-86
2022/11/08 11:31:34;;;;;;;46.00;24.17;;;;;;;;;;6242301;23;20083;-86
2022/11/08 11:34:00;;;;;;;50.63;22.77;;;;;;;;;;6243608;22;20004;-86
2022/11/08 11:36:28;;;;;;;43.25;21.75;;;;;;;;;;6241285;23;20030;-86
2022/11/08 11:38:58;;;;;;;41.88;21.20;;;;;;;;;;6266828;22;20011;-86
2022/11/08 11:41:25;;;;;;;44.78;22.98;;;;;;;;;;6241450;22;20008;-88
2022/11/08 11:44:02;;;;;;;43.65;20.88;;;;;;;;;;6267637;22;20133;-87
2022/11/08 11:46:38;;;;;;;43.13;21.55;;;;;;;;;;6241524;23;20395;-86
2022/11/08 11:49:05;;;;;;;46.83;22.30;;;;;;;;;;6241389;23;20012;-87
2022/11/08 11:51:31;;;;;;;46.55;21.08;;;;;;;;;;6267009;22;20004;-87
2022/11/08 11:54:05;;;;;;;42.42;20.55;;;;;;;;;;6266567;22;20360;-87
2022/11/08 11:56:30;;;;;;;41.45;20.90;;;;;;;;;;6241632;23;20012;-86
2022/11/08 11:59:14;;;;;;;38.25;19.50;;;;;;;;;;6244781;22;20020;-87
2022/11/08 12:01:49;;;;;;;34.40;18.35;;;;;;;;;;6268450;22;20012;-87
2022/11/08 12:04:19;;;;;;;36.15;18.02;;;;;;;;;;6244322;23;20008;-87
2022/11/08 12:06:59;;;;;;;30.75;16.27;;;;;;;;;;6244493;22;20082;-87
2022/11/08 12:09:27;;;;;;;30.92;16.75;;;;;;;;;;6270151;22;20095;-87
2022/11/08 12:11:58;;;;;;;27.42;15.15;;;;;;;;;;6271017;22;20412;-88
2022/11/08 12:14:42;;;;;;;33.42;15.85;;;;;;;;;;6243868;22;20445;-85
2022/11/08 12:17:14;;;;;;;31.58;16.35;;;;;;;;;;6246243;23;20717;-88
2022/11/08 12:20:05;;;;;;;25.10;13.93;;;;;;;;;;6245204;23;20511;-88
2022/11/08 12:22:40;;;;;;;25.17;13.77;;;;;;;;;;6268962;22;20063;-87
2022/11/08 12:25:05;;;;;;;27.65;14.57;;;;;;;;;;6245212;22;20004;-87
2022/11/08 12:27:34;;;;;;;23.48;13.93;;;;;;;;;;6269130;22;19996;-87
2022/11/08 12:30:19;;;;;;;24.30;13.02;;;;;;;;;;6243786;23;20015;-87
2022/11/08 12:33:04;;;;;;;23.77;12.98;;;;;;;;;;6242461;22;20015;-87
2022/11/08 12:35:35;;;;;;;25.20;14.65;;;;;;;;;;6243295;23;20012;-87
2022/11/08 12:38:20;;;;;;;22.48;12.43;;;;;;;;;;6268482;22;20105;-88
2022/11/08 12:40:53;;;;;;;22.13;13.05;;;;;;;;;;6268735;22;20061;-87
2022/11/08 12:43:38;;;;;;;21.88;13.25;;;;;;;;;;6243117;23;20031;-86
2022/11/08 12:46:03;;;;;;;24.05;13.27;;;;;;;;;;6243107;23;20043;-84
2022/11/08 12:48:47;;;;;;;21.33;13.02;;;;;;;;;;6244458;23;20000;-87
2022/11/08 12:51:13;;;;;;;22.98;12.50;;;;;;;;;;6242579;23;20348;-86
2022/11/08 12:53:42;;;;;;;22.23;12.45;;;;;;;;;;6244450;23;20007;-86
2022/11/08 12:56:12;;;;;;;22.98;12.93;;;;;;;;;;6242591;23;20390;-85
2022/11/08 12:58:38;;;;;;;20.67;13.18;;;;;;;;;;6267914;22;20050;-85
2022/11/08 13:01:11;;;;;;;22.15;12.55;;;;;;;;;;6243997;23;20013;-86
2022/11/08 13:03:45;;;;;;;23.38;12.20;;;;;;;;;;6243840;23;20008;-85
2022/11/08 13:06:20;;;;;;;21.65;12.70;;;;;;;;;;6269459;22;20030;-85
2022/11/08 13:08:55;;;;;;;22.70;13.60;;;;;;;;;;6243785;23;20456;-87
2022/11/08 13:11:26;;;;;;;21.30;13.07;;;;;;;;;;6269075;22;20016;-87
2022/11/08 13:13:54;;;;;;;21.30;13.13;;;;;;;;;;6268315;22;20023;-87
2022/11/08 13:16:24;;;;;;;21.45;13.63;;;;;;;;;;6242210;23;20055;-87
2022/11/08 13:18:49;;;;;;;21.05;12.02;;;;;;;;;;6268082;22;20008;-85
2022/11/08 13:21:27;;;;;;;19.25;11.40;;;;;;;;;;6243979;23;20084;-87
2022/11/08 13:23:53;;;;;;;21.90;12.55;;;;;;;;;;6268442;22;20015;-85
2022/11/08 13:26:23;;;;;;;21.58;12.20;;;;;;;;;;6268793;22;20000;-85
2022/11/08 13:28:48;;;;;;;20.25;11.90;;;;;;;;;;6242925;23;20054;-86
2022/11/08 13:31:15;;;;;;;17.83;10.80;;;;;;;;;;6268995;22;20000;-86
2022/11/08 13:33:43;;;;;;;20.58;10.70;;;;;;;;;;6268230;22;20019;-85
2022/11/08 13:36:09;;;;;;;18.75;11.32;;;;;;;;;;6268211;22;20004;-87
2022/11/08 13:38:37;;;;;;;21.17;11.57;;;;;;;;;;6243888;23;20158;-84
2022/11/08 13:41:16;;;;;;;18.42;10.98;;;;;;;;;;6244034;23;19996;-86
2022/11/08 13:43:41;;;;;;;22.23;12.43;;;;;;;;;;6242192;23;20015;-86
2022/11/08 13:46:24;;;;;;;20.25;11.30;;;;;;;;;;6267829;22;20027;-86
2022/11/08 13:49:10;;;;;;;21.48;11.60;;;;;;;;;;6244034;23;20374;-86
2022/11/08 13:51:36;;;;;;;20.60;11.32;;;;;;;;;;6221181;23;20012;-86
2022/11/08 13:54:01;;;;;;;17.75;10.10;;;;;;;;;;6267619;22;20000;-87
2022/11/08 13:56:39;;;;;;;17.42;10.50;;;;;;;;;;6268009;22;20530;-86
2022/11/08 13:59:23;;;;;;;15.27;9.85;;;;;;;;;;6243561;22;20020;-85
2022/11/08 14:01:59;;;;;;;14.65;9.65;;;;;;;;;;6242393;23;20016;-85
2022/11/08 14:04:25;;;;;;;15.63;9.50;;;;;;;;;;6242296;23;20333;-86
2022/11/08 14:06:50;;;;;;;14.88;10.02;;;;;;;;;;6242397;23;20008;-85
2022/11/08 14:09:16;;;;;;;14.20;9.27;;;;;;;;;;6267879;22;20012;-87
2022/11/08 14:11:51;;;;;;;15.05;9.55;;;;;;;;;;6216807;23;20004;-86
2022/11/08 14:14:16;;;;;;;16.15;9.95;;;;;;;;;;6242146;23;20048;-86
2022/11/08 14:17:01;;;;;;;15.38;9.90;;;;;;;;;;6241907;23;20388;-85
2022/11/08 14:19:29;;;;;;;16.40;10.02;;;;;;;;;;6243713;22;20039;-86
2022/11/08 14:21:55;;;;;;;14.90;9.27;;;;;;;;;;6267599;22;20000;-86
2022/11/08 14:24:22;;;;;;;19.17;9.98;;;;;;;;;;6268342;22;20012;-87
2022/11/08 14:26:47;;;;;;;14.43;9.85;;;;;;;;;;6242753;23;20016;-87
2022/11/08 14:29:14;;;;;;;16.38;10.57;;;;;;;;;;6241629;23;20022;-87
2022/11/08 14:31:40;;;;;;;15.77;10.10;;;;;;;;;;6216226;23;20091;-87
2022/11/08 14:34:07;;;;;;;15.73;9.50;;;;;;;;;;6242148;23;20036;-86
2022/11/08 14:36:32;;;;;;;13.70;9.35;;;;;;;;;;6267240;22;20122;-86
2022/11/08 14:39:02;;;;;;;15.98;10.02;;;;;;;;;;6267883;22;20047;-86
2022/11/08 14:41:28;;;;;;;16.40;9.77;;;;;;;;;;6267280;22;20066;-86
2022/11/08 14:43:54;;;;;;;16.45;10.02;;;;;;;;;;6241896;23;20031;-87